createdAt,value
2022-08-02T00:00:48.193Z,14.10
2022-08-02T00:03:16.757Z,14.10
2022-08-02T00:05:53.488Z,14.00
2022-08-02T00:08:22.992Z,13.90
2022-08-02T00:10:51.877Z,13.90
2022-08-02T00:13:20.414Z,13.90
2022-08-02T00:15:50.227Z,13.80
2022-08-02T00:18:18.728Z,13.80
2022-08-02T00:20:47.338Z,13.80
2022-08-02T00:23:15.868Z,13.70
2022-08-02T00:25:54.991Z,13.70
2022-08-02T00:28:27.311Z,13.60
2022-08-02T00:30:58.275Z,13.50
2022-08-02T00:34:05.594Z,13.50
2022-08-02T00:36:15.936Z,13.50
2022-08-02T00:38:46.497Z,13.40
2022-08-02T00:41:16.977Z,13.40
2022-08-02T00:43:45.917Z,13.30
2022-08-02T00:46:16.657Z,13.30
2022-08-02T00:48:45.261Z,13.30
2022-08-02T00:51:13.927Z,13.20
2022-08-02T00:53:42.599Z,13.20
2022-08-02T00:56:11.178Z,13.10
2022-08-02T00:58:39.856Z,13.10
2022-08-02T01:01:08.615Z,13.10
2022-08-02T01:03:38.556Z,13.00
2022-08-02T01:06:11.168Z,13.00
2022-08-02T01:08:40.180Z,13.00
2022-08-02T01:11:09.383Z,12.90
2022-08-02T01:13:38.406Z,12.90
2022-08-02T01:16:14.355Z,12.80
2022-08-02T01:18:51.970Z,12.80
2022-08-02T01:21:39.377Z,12.80
2022-08-02T01:24:36.809Z,12.80
2022-08-02T01:27:22.030Z,12.70
2022-08-02T01:29:57.906Z,12.70
2022-08-02T01:32:30.827Z,12.60
2022-08-02T01:35:03.919Z,12.60
2022-08-02T01:37:41.307Z,12.60
2022-08-02T01:40:12.088Z,12.50
2022-08-02T01:42:44.667Z,12.50
2022-08-02T01:45:16.366Z,12.50
2022-08-02T01:47:48.029Z,12.50
2022-08-02T01:50:19.617Z,12.40
2022-08-02T01:52:53.820Z,12.40
2022-08-02T01:55:33.396Z,12.40
2022-08-02T01:58:06.176Z,12.40
2022-08-02T02:00:40.186Z,12.30
2022-08-02T02:03:13.686Z,12.30
2022-08-02T02:05:44.039Z,12.30
2022-08-02T02:08:13.354Z,12.20
2022-08-02T02:10:43.706Z,12.20
2022-08-02T02:13:21.365Z,12.20
2022-08-02T02:16:05.997Z,12.10
2022-08-02T02:18:42.079Z,12.10
2022-08-02T02:21:10.776Z,12.10
2022-08-02T02:23:39.510Z,12.10
2022-08-02T02:26:11.618Z,12.10
2022-08-02T02:28:42.458Z,12.00
2022-08-02T02:31:15.138Z,12.00
2022-08-02T02:34:14.877Z,12.00
2022-08-02T02:37:07.172Z,11.90
2022-08-02T02:39:39.014Z,11.90
2022-08-02T02:42:12.355Z,11.80
2022-08-02T02:44:42.886Z,11.80
2022-08-02T02:47:13.536Z,11.80
2022-08-02T02:49:43.616Z,11.80
2022-08-02T02:52:14.468Z,11.70
2022-08-02T02:54:45.146Z,11.70
2022-08-02T02:57:14.166Z,11.70
2022-08-02T02:59:49.195Z,11.70
2022-08-02T03:02:21.089Z,11.70
2022-08-02T03:04:56.264Z,11.70
2022-08-02T03:07:27.526Z,11.60
2022-08-02T03:09:56.204Z,11.60
2022-08-02T03:12:31.403Z,11.60
2022-08-02T03:15:02.280Z,11.60
2022-08-02T03:17:44.478Z,11.60
2022-08-02T03:20:15.275Z,11.60
2022-08-02T03:22:45.647Z,11.60
2022-08-02T03:25:15.639Z,11.50
2022-08-02T03:27:44.842Z,11.50
2022-08-02T03:30:15.485Z,11.50
2022-08-02T03:32:48.364Z,11.50
2022-08-02T03:35:23.856Z,11.50
2022-08-02T03:37:55.577Z,11.40
2022-08-02T03:40:24.884Z,11.40
2022-08-02T03:42:53.731Z,11.40
2022-08-02T03:45:22.762Z,11.40
2022-08-02T03:47:53.707Z,11.30
2022-08-02T03:50:28.635Z,11.30
2022-08-02T03:52:58.129Z,11.30
2022-08-02T03:55:27.058Z,11.30
2022-08-02T03:57:55.791Z,11.30
2022-08-02T04:00:24.746Z,11.30
2022-08-02T04:03:24.048Z,11.30
2022-08-02T04:06:14.494Z,11.30
2022-08-02T04:08:44.438Z,11.30
2022-08-02T04:11:30.480Z,11.30
2022-08-02T04:14:00.234Z,11.30
2022-08-02T04:16:39.378Z,11.30
2022-08-02T04:19:14.852Z,11.30
2022-08-02T04:21:51.865Z,11.30
2022-08-02T04:24:26.434Z,11.30
2022-08-02T04:27:06.888Z,11.30
2022-08-02T04:29:47.819Z,11.30
2022-08-02T04:32:17.108Z,11.30
2022-08-02T04:35:18.281Z,11.30
2022-08-02T04:37:36.749Z,11.30
2022-08-02T04:40:09.607Z,11.40
2022-08-02T04:42:38.446Z,11.40
2022-08-02T04:45:16.520Z,11.50
2022-08-02T04:48:02.072Z,11.60
2022-08-02T04:50:33.740Z,11.60
2022-08-02T04:53:02.266Z,11.60
2022-08-02T04:55:30.761Z,11.70
2022-08-02T04:58:03.650Z,11.70
2022-08-02T05:00:35.432Z,11.80
2022-08-02T05:03:04.026Z,11.80
2022-08-02T05:05:33.898Z,11.90
2022-08-02T05:08:02.328Z,12.00
2022-08-02T05:10:30.833Z,12.10
2022-08-02T05:12:59.327Z,12.30
2022-08-02T05:15:31.622Z,12.40
2022-08-02T05:18:01.909Z,12.60
2022-08-02T05:20:30.501Z,12.90
2022-08-02T05:23:00.378Z,13.10
2022-08-02T05:25:29.013Z,13.40
2022-08-02T05:27:57.658Z,13.70
2022-08-02T05:30:26.745Z,14.00
2022-08-02T05:32:55.362Z,14.30
2022-08-02T05:35:25.160Z,14.60
2022-08-02T05:37:54.106Z,14.80
2022-08-02T05:40:25.500Z,15.10
2022-08-02T05:42:55.033Z,15.30
2022-08-02T05:45:23.515Z,15.50
2022-08-02T05:47:52.086Z,15.70
2022-08-02T05:50:21.218Z,15.80
2022-08-02T05:52:58.170Z,16.00
2022-08-02T05:55:30.012Z,16.20
2022-08-02T05:58:07.377Z,16.40
2022-08-02T06:00:36.549Z,16.70
2022-08-02T06:03:20.194Z,16.90
2022-08-02T06:05:54.980Z,17.20
2022-08-02T06:08:26.966Z,17.40
2022-08-02T06:11:02.419Z,17.80
2022-08-02T06:13:31.192Z,18.00
2022-08-02T06:16:00.788Z,18.30
2022-08-02T06:18:30.147Z,18.50
2022-08-02T06:22:32.596Z,18.80
2022-08-02T06:23:58.159Z,19.10
2022-08-02T06:26:29.517Z,19.40
2022-08-02T06:28:59.785Z,19.70
2022-08-02T06:31:28.289Z,20.00
2022-08-02T06:33:56.988Z,20.00
2022-08-02T06:36:40.145Z,20.40
2022-08-02T06:39:15.981Z,20.80
2022-08-02T06:41:50.372Z,21.20
2022-08-02T06:44:45.543Z,21.50
2022-08-02T06:47:11.256Z,22.00
2022-08-02T06:49:52.658Z,22.30
2022-08-02T06:52:28.694Z,22.60
2022-08-02T06:54:58.653Z,22.90
2022-08-02T06:57:28.605Z,23.40
2022-08-02T06:59:58.520Z,23.60
2022-08-02T07:02:27.077Z,23.90
2022-08-02T07:04:56.396Z,23.90
2022-08-02T07:07:25.016Z,24.00
2022-08-02T07:10:00.351Z,24.30
2022-08-02T07:12:32.817Z,24.50
2022-08-02T07:15:02.480Z,24.50
2022-08-02T07:17:31.580Z,24.50
2022-08-02T07:20:00.984Z,24.30
2022-08-02T07:22:30.282Z,24.00
2022-08-02T07:25:00.229Z,23.70
2022-08-02T07:27:30.706Z,23.70
2022-08-02T07:29:59.813Z,23.90
2022-08-02T07:32:30.518Z,23.80
2022-08-02T07:34:59.957Z,23.60
2022-08-02T07:37:53.417Z,23.50
2022-08-02T07:40:23.404Z,23.60
2022-08-02T07:42:59.390Z,23.80
2022-08-02T07:45:32.429Z,23.70
2022-08-02T07:48:01.044Z,23.80
2022-08-02T07:50:30.171Z,23.70
2022-08-02T07:52:58.529Z,24.00
2022-08-02T07:55:37.945Z,24.20
2022-08-02T07:58:12.683Z,24.30
2022-08-02T08:00:43.466Z,24.20
2022-08-02T08:03:12.074Z,24.40
2022-08-02T08:05:40.942Z,24.70
2022-08-02T08:08:13.810Z,24.80
2022-08-02T08:10:45.824Z,24.70
2022-08-02T08:13:15.945Z,25.00
2022-08-02T08:15:51.712Z,25.20
2022-08-02T08:18:22.172Z,25.50
2022-08-02T08:20:51.885Z,25.60
2022-08-02T08:23:20.451Z,25.40
2022-08-02T08:25:49.025Z,25.30
2022-08-02T08:28:18.943Z,25.10
2022-08-02T08:30:48.564Z,25.20
2022-08-02T08:33:17.306Z,25.20
2022-08-02T08:35:45.776Z,25.10
2022-08-02T08:38:15.762Z,25.80
2022-08-02T08:40:44.943Z,26.40
2022-08-02T08:43:14.946Z,26.70
2022-08-02T08:45:45.451Z,26.70
2022-08-02T08:48:31.360Z,26.80
2022-08-02T08:51:06.194Z,26.60
2022-08-02T08:53:41.476Z,26.30
2022-08-02T08:56:16.058Z,26.40
2022-08-02T08:58:48.697Z,26.80
2022-08-02T09:01:18.693Z,27.20
2022-08-02T09:03:47.331Z,27.10
2022-08-02T09:06:15.826Z,27.10
2022-08-02T09:08:44.437Z,27.30
2022-08-02T09:11:16.807Z,27.20
2022-08-02T09:13:56.395Z,27.20
2022-08-02T09:16:35.015Z,26.90
2022-08-02T09:19:17.752Z,27.00
2022-08-02T09:21:46.705Z,27.00
2022-08-02T09:24:19.976Z,26.50
2022-08-02T09:26:49.095Z,26.60
2022-08-02T09:29:24.995Z,27.00
2022-08-02T09:32:04.746Z,27.30
2022-08-02T09:34:46.662Z,27.40
2022-08-02T09:37:26.858Z,28.00
2022-08-02T09:39:57.227Z,27.80
2022-08-02T09:42:30.720Z,28.10
2022-08-02T09:45:01.306Z,28.10
2022-08-02T09:47:33.515Z,28.00
2022-08-02T09:50:08.342Z,28.00
2022-08-02T09:52:43.760Z,28.40
2022-08-02T09:55:13.665Z,28.50
2022-08-02T09:57:42.163Z,28.20
2022-08-02T10:00:14.944Z,28.20
2022-08-02T10:03:08.102Z,28.10
2022-08-02T10:05:56.285Z,28.20
2022-08-02T10:08:32.752Z,28.20
2022-08-02T10:11:01.950Z,28.40
2022-08-02T10:13:31.814Z,28.10
2022-08-02T10:16:09.856Z,28.20
2022-08-02T10:18:41.252Z,28.70
2022-08-02T10:21:14.997Z,28.50
2022-08-02T10:23:46.258Z,28.70
2022-08-02T10:26:20.512Z,28.70
2022-08-02T10:28:50.938Z,28.50
2022-08-02T10:31:25.594Z,28.60
2022-08-02T10:33:59.617Z,28.70
2022-08-02T10:36:31.208Z,29.30
2022-08-02T10:39:00.856Z,29.90
2022-08-02T10:41:43.470Z,30.30
2022-08-02T10:44:24.390Z,30.10
2022-08-02T10:46:54.816Z,29.80
2022-08-02T10:49:40.817Z,29.70
2022-08-02T10:52:11.470Z,29.80
2022-08-02T10:54:42.740Z,30.10
2022-08-02T10:57:23.092Z,29.90
2022-08-02T10:59:55.920Z,30.20
2022-08-02T11:02:42.997Z,30.00
2022-08-02T11:05:18.439Z,30.70
2022-08-02T11:07:49.830Z,31.10
2022-08-02T11:10:36.284Z,30.70
2022-08-02T11:13:11.557Z,30.60
2022-08-02T11:15:59.046Z,30.00
2022-08-02T11:19:00.577Z,30.20
2022-08-02T11:21:31.473Z,30.40
2022-08-02T11:24:27.571Z,30.10
2022-08-02T11:26:56.999Z,30.40
2022-08-02T11:29:38.388Z,30.40
2022-08-02T11:32:09.549Z,30.70
2022-08-02T11:34:40.375Z,30.30
2022-08-02T11:37:13.607Z,30.00
2022-08-02T11:39:42.382Z,30.20
2022-08-02T11:42:16.767Z,30.60
2022-08-02T11:44:46.973Z,31.10
2022-08-02T11:47:15.538Z,31.40
2022-08-02T11:49:45.089Z,31.40
2022-08-02T11:52:21.603Z,31.40
2022-08-02T11:54:51.320Z,31.40
2022-08-02T11:57:26.232Z,30.90
2022-08-02T11:59:56.904Z,30.70
2022-08-02T12:02:28.874Z,30.80
2022-08-02T12:05:00.730Z,30.80
2022-08-02T12:07:35.308Z,30.90
2022-08-02T12:10:08.450Z,30.40
2022-08-02T12:12:49.200Z,30.70
2022-08-02T12:15:30.585Z,30.90
2022-08-02T12:18:16.929Z,30.80
2022-08-02T12:20:45.943Z,30.50
2022-08-02T12:23:16.064Z,30.50
2022-08-02T12:25:44.675Z,30.30
2022-08-02T12:28:18.211Z,29.90
2022-08-02T12:30:55.826Z,30.00
2022-08-02T12:33:25.566Z,30.10
2022-08-02T12:35:54.236Z,30.00
2022-08-02T12:38:24.695Z,30.20
2022-08-02T12:40:54.345Z,30.10
2022-08-02T12:43:26.245Z,30.20
2022-08-02T12:45:57.440Z,30.30
2022-08-02T12:48:38.423Z,29.90
2022-08-02T12:51:22.634Z,29.70
2022-08-02T12:54:00.013Z,29.70
2022-08-02T12:56:30.885Z,30.20
2022-08-02T12:59:00.626Z,30.70
2022-08-02T13:01:30.039Z,30.70
2022-08-02T13:04:12.213Z,31.00
2022-08-02T13:06:44.891Z,30.70
2022-08-02T13:09:17.429Z,30.80
2022-08-02T13:11:46.374Z,30.90
2022-08-02T13:14:15.386Z,30.80
2022-08-02T13:16:45.615Z,31.00
2022-08-02T13:19:15.538Z,30.80
2022-08-02T13:22:01.396Z,30.30
2022-08-02T13:24:40.076Z,30.00
2022-08-02T13:27:22.732Z,29.80
2022-08-02T13:29:52.013Z,30.20
2022-08-02T13:32:24.420Z,30.20
2022-08-02T13:34:53.328Z,30.40
2022-08-02T13:37:22.643Z,30.10
2022-08-02T13:40:12.205Z,30.20
2022-08-02T13:42:41.693Z,30.00
2022-08-02T13:45:12.593Z,30.20
2022-08-02T13:48:05.483Z,30.40
2022-08-02T13:50:31.887Z,30.50
2022-08-02T13:53:00.571Z,30.70
2022-08-02T13:55:33.708Z,30.40
2022-08-02T13:58:02.614Z,30.30
2022-08-02T14:00:36.348Z,30.40
2022-08-02T14:03:07.035Z,30.70
2022-08-02T14:05:48.589Z,31.00
2022-08-02T14:08:19.185Z,31.00
2022-08-02T14:10:50.886Z,31.30
2022-08-02T14:13:20.612Z,31.40
2022-08-02T14:15:49.944Z,31.50
2022-08-02T14:18:18.745Z,31.60
2022-08-02T14:20:47.688Z,31.90
2022-08-02T14:23:16.465Z,31.80
2022-08-02T14:25:45.214Z,31.70
2022-08-02T14:28:16.052Z,31.30
2022-08-02T14:30:44.480Z,31.30
2022-08-02T14:33:13.223Z,31.30
2022-08-02T14:35:41.950Z,31.40
2022-08-02T14:38:10.469Z,31.30
2022-08-02T14:40:38.974Z,31.80
2022-08-02T14:43:08.303Z,32.20
2022-08-02T14:45:40.704Z,31.90
2022-08-02T14:48:12.308Z,32.00
2022-08-02T14:50:40.886Z,32.10
2022-08-02T14:53:12.695Z,31.90
2022-08-02T14:55:42.785Z,32.10
2022-08-02T14:58:11.757Z,32.00
2022-08-02T15:00:43.859Z,31.70
2022-08-02T15:03:12.984Z,31.60
2022-08-02T15:05:41.686Z,31.40
2022-08-02T15:08:10.247Z,31.50
2022-08-02T15:10:38.837Z,31.50
2022-08-02T15:13:07.603Z,31.90
2022-08-02T15:15:43.641Z,31.80
2022-08-02T15:18:14.263Z,31.60
2022-08-02T15:20:57.176Z,31.60
2022-08-02T15:23:34.874Z,31.70
2022-08-02T15:26:06.326Z,32.10
2022-08-02T15:28:35.185Z,32.20
2022-08-02T15:31:03.719Z,32.20
2022-08-02T15:33:33.575Z,31.90
2022-08-02T15:36:01.997Z,31.70
2022-08-02T15:38:30.577Z,31.60
2022-08-02T15:40:59.215Z,31.70
2022-08-02T15:43:30.517Z,31.90
2022-08-02T15:45:59.485Z,32.20
2022-08-02T15:48:27.956Z,32.20
2022-08-02T15:50:58.208Z,32.10
2022-08-02T15:53:26.727Z,31.80
2022-08-02T15:56:05.641Z,31.60
2022-08-02T15:58:44.535Z,31.60
2022-08-02T16:01:13.487Z,31.30
2022-08-02T16:03:42.103Z,31.10
2022-08-02T16:06:12.519Z,30.90
2022-08-02T16:08:53.352Z,30.70
2022-08-02T16:11:22.854Z,30.40
2022-08-02T16:13:54.222Z,30.30
2022-08-02T16:16:24.044Z,30.40
2022-08-02T16:18:52.784Z,30.10
2022-08-02T16:21:24.808Z,30.00
2022-08-02T16:24:00.937Z,29.80
2022-08-02T16:26:32.500Z,29.90
2022-08-02T16:29:02.255Z,29.80
2022-08-02T16:31:30.939Z,29.80
2022-08-02T16:34:00.098Z,29.90
2022-08-02T16:36:30.657Z,29.70
2022-08-02T16:38:59.568Z,29.50
2022-08-02T16:41:51.925Z,29.50
2022-08-02T16:44:17.279Z,29.60
2022-08-02T16:46:46.287Z,29.60
2022-08-02T16:50:04.993Z,29.50
2022-08-02T16:52:09.916Z,29.50
2022-08-02T16:54:40.053Z,29.40
2022-08-02T16:57:08.656Z,29.30
2022-08-02T16:59:42.732Z,29.20
2022-08-02T17:02:18.207Z,29.10
2022-08-02T17:04:48.263Z,29.00
2022-08-02T17:08:07.840Z,28.90
2022-08-02T17:10:09.005Z,28.70
2022-08-02T17:12:39.077Z,28.60
2022-08-02T17:16:08.148Z,28.50
2022-08-02T17:17:57.902Z,28.50
2022-08-02T17:20:26.584Z,28.50
2022-08-02T17:22:56.794Z,28.50
2022-08-02T17:25:31.953Z,28.40
2022-08-02T17:28:01.027Z,28.40
2022-08-02T17:30:29.908Z,28.50
2022-08-02T17:32:59.616Z,28.60
2022-08-02T17:41:07.514Z,28.90
2022-08-02T17:43:43.735Z,29.10
2022-08-02T17:46:13.567Z,29.10
2022-08-02T17:48:59.391Z,29.00
2022-08-02T17:52:15.806Z,29.00
2022-08-02T17:54:19.029Z,28.90
2022-08-02T17:56:48.329Z,28.80
2022-08-02T17:59:20.807Z,28.80
2022-08-02T18:01:52.878Z,28.70
2022-08-02T18:04:26.884Z,28.70
2022-08-02T18:06:58.725Z,28.70
2022-08-02T18:09:29.136Z,28.60
2022-08-02T18:11:58.806Z,28.60
2022-08-02T18:14:27.460Z,28.50
2022-08-02T18:16:56.056Z,28.50
2022-08-02T18:19:42.146Z,28.30
2022-08-02T18:22:12.120Z,28.20
2022-08-02T18:24:44.152Z,28.00
2022-08-02T18:27:14.199Z,28.00
2022-08-02T18:29:45.346Z,27.90
2022-08-02T18:32:15.908Z,27.90
2022-08-02T18:35:04.427Z,27.80
2022-08-02T18:37:40.489Z,27.70
2022-08-02T18:40:15.495Z,27.60
2022-08-02T18:42:43.984Z,27.50
2022-08-02T18:45:19.691Z,27.40
2022-08-02T18:47:50.794Z,27.30
2022-08-02T18:50:20.794Z,27.20
2022-08-02T18:52:49.355Z,27.10
2022-08-02T18:55:59.826Z,26.90
2022-08-02T18:58:18.088Z,26.90
2022-08-02T19:00:51.764Z,26.70
2022-08-02T19:03:20.667Z,26.60
2022-08-02T19:05:52.218Z,26.50
2022-08-02T19:08:25.389Z,26.40
2022-08-02T19:10:57.347Z,26.30
2022-08-02T19:13:25.867Z,26.20
2022-08-02T19:15:54.426Z,26.10
2022-08-02T19:18:27.098Z,26.00
2022-08-02T19:21:05.356Z,25.90
2022-08-02T19:23:34.426Z,25.70
2022-08-02T19:26:04.385Z,25.60
2022-08-02T19:28:32.796Z,25.40
2022-08-02T19:31:02.038Z,25.30
2022-08-02T19:34:06.304Z,25.20
2022-08-02T19:36:19.406Z,25.10
2022-08-02T19:38:49.297Z,24.90
2022-08-02T19:44:24.131Z,24.70
2022-08-02T19:46:56.227Z,24.50
2022-08-02T19:49:39.163Z,24.40
2022-08-02T19:52:21.177Z,24.30
2022-08-02T19:54:54.680Z,24.20
2022-08-02T19:57:25.988Z,24.10
2022-08-02T19:59:56.986Z,24.00
2022-08-02T20:02:26.488Z,24.00
2022-08-02T20:04:55.316Z,23.90
2022-08-02T20:07:54.406Z,23.70
2022-08-02T20:10:13.397Z,23.70
2022-08-02T20:12:54.896Z,23.60
2022-08-02T20:15:23.909Z,23.40
2022-08-02T20:18:15.166Z,23.30
2022-08-02T20:20:55.285Z,23.30
2022-08-02T20:23:32.065Z,23.20
2022-08-02T20:26:02.648Z,23.10
2022-08-02T20:28:32.645Z,23.00
2022-08-02T20:33:55.817Z,22.70
2022-08-02T20:36:25.116Z,22.60
2022-08-02T20:38:54.486Z,22.50
2022-08-02T20:41:23.335Z,22.50
2022-08-02T20:43:53.216Z,22.40
2022-08-02T20:46:23.277Z,22.40
2022-08-02T20:48:51.754Z,22.20
2022-08-02T20:51:30.423Z,22.20
2022-08-02T20:54:02.612Z,22.10
2022-08-02T20:56:31.477Z,22.10
2022-08-02T20:59:04.022Z,22.00
2022-08-02T21:01:57.370Z,22.00
2022-08-02T21:04:26.558Z,21.90
2022-08-02T21:06:55.950Z,21.80
2022-08-02T21:09:53.010Z,21.80
2022-08-02T21:12:13.619Z,21.70
2022-08-02T21:14:43.456Z,21.60
2022-08-02T21:17:11.846Z,21.50
2022-08-02T21:19:51.956Z,21.50
2022-08-02T21:22:20.298Z,21.40
2022-08-02T21:24:56.246Z,21.40
2022-08-02T21:27:53.468Z,21.30
2022-08-02T21:30:14.987Z,21.20
2022-08-02T21:32:43.910Z,21.20
2022-08-02T21:35:13.240Z,21.10
2022-08-02T21:37:44.654Z,21.10
2022-08-02T21:40:14.941Z,21.00
2022-08-02T21:42:43.737Z,21.00
2022-08-02T21:45:17.244Z,20.90
2022-08-02T21:47:48.648Z,20.90
2022-08-02T21:50:17.233Z,20.80
2022-08-02T21:52:52.333Z,20.70
2022-08-02T21:55:24.343Z,20.70
2022-08-02T21:58:10.152Z,20.60
2022-08-02T22:00:40.114Z,20.50
2022-08-02T22:03:22.582Z,20.50
2022-08-02T22:05:51.857Z,20.40
2022-08-02T22:08:22.376Z,20.40
2022-08-02T22:11:04.325Z,20.30
2022-08-02T22:16:36.946Z,20.20
2022-08-02T22:19:06.607Z,20.10
2022-08-02T22:21:54.658Z,20.10
2022-08-02T22:24:29.815Z,20.10
2022-08-02T22:26:59.018Z,20.00
2022-08-02T22:29:27.504Z,20.00
2022-08-02T22:31:57.299Z,19.90
2022-08-02T22:34:36.825Z,19.90
2022-08-02T22:38:17.390Z,19.80
2022-08-02T22:40:09.219Z,19.80
2022-08-02T22:42:40.130Z,19.70
2022-08-02T22:45:10.146Z,19.60
2022-08-02T22:47:50.810Z,19.50
2022-08-02T22:50:20.173Z,19.40
2022-08-02T22:52:50.340Z,19.30
2022-08-02T22:55:19.098Z,19.30
2022-08-02T22:57:50.555Z,19.20
2022-08-02T22:58:48.942Z,28.80
2022-08-02T22:58:50.121Z,28.70
2022-08-02T22:58:55.569Z,22.80
2022-08-02T22:59:08.297Z,24.80
2022-08-02T22:59:11.539Z,20.30
2022-08-02T23:00:25.536Z,19.20
2022-08-02T23:02:55.526Z,19.20
2022-08-02T23:05:23.946Z,19.20
2022-08-02T23:07:52.498Z,19.10
2022-08-02T23:10:20.945Z,19.10
2022-08-02T23:12:49.475Z,19.00
2022-08-02T23:15:18.176Z,19.00
2022-08-02T23:18:03.716Z,19.00
2022-08-02T23:20:33.868Z,18.90
2022-08-02T23:23:02.215Z,18.90
2022-08-02T23:25:30.612Z,18.80
2022-08-02T23:27:59.057Z,18.80
2022-08-02T23:30:27.505Z,18.80
2022-08-02T23:32:58.675Z,18.80
2022-08-02T23:35:27.096Z,18.70
2022-08-02T23:38:00.735Z,18.70
2022-08-02T23:40:38.652Z,18.60
2022-08-02T23:43:14.941Z,18.60
2022-08-02T23:45:45.549Z,18.60
2022-08-02T23:48:14.217Z,18.50
2022-08-02T23:50:42.618Z,18.50
2022-08-02T23:53:12.468Z,18.40
2022-08-02T23:55:40.928Z,18.40
2022-08-02T23:58:09.259Z,18.40
